Terminal Aerodrome Forecast
Issued by NWS Detroit/Pontiac, MI

Home | Current Version | Previous Version | Text Only | Print | Product List | Glossary On
Versions: 1 2 3 4 5 6 7 8 9 10 11 12 13 14 15 16 17 18 19 20 21 22 23 24 25 26 27
000
FTUS43 KDTX 272300
TAFDTW
TAF
KDTW 272338Z 2800/2906 35006KT P6SM SCT040 BKN180
     FM280200 03003KT P6SM BKN180
     FM280600 04002KT P6SM SCT180
     FM281000 02004KT P6SM FEW035=

USA.gov is the U.S. government's official web portal to all federal, state and local government web resources and services.